createdAt,value
2023-02-26T00:00:53.527Z,11.04
2023-02-26T00:01:50.221Z,11.42
2023-02-26T00:02:49.039Z,11.46
2023-02-26T00:03:49.660Z,11.61
2023-02-26T00:04:46.250Z,11.59
2023-02-26T00:05:42.929Z,11.55
2023-02-26T00:06:54.202Z,11.48
2023-02-26T00:07:56.106Z,11.52
2023-02-26T00:08:53.725Z,11.44
2023-02-26T00:09:50.527Z,11.29
2023-02-26T00:10:47.947Z,11.51
2023-02-26T00:11:45.578Z,11.53
2023-02-26T00:12:43.358Z,11.42
2023-02-26T00:13:42.541Z,11.39
2023-02-26T00:14:39.555Z,11.42
2023-02-26T00:15:36.467Z,11.51
2023-02-26T00:16:36.321Z,10.94
2023-02-26T00:17:43.004Z,11.55
2023-02-26T00:18:40.093Z,11.51
2023-02-26T00:19:36.904Z,11.42
2023-02-26T00:20:34.130Z,11.39
2023-02-26T00:21:31.843Z,11.54
2023-02-26T00:22:28.765Z,11.28
2023-02-26T00:23:25.522Z,11.44
2023-02-26T00:24:22.134Z,11.40
2023-02-26T00:25:18.812Z,11.42
2023-02-26T00:26:15.522Z,11.44
2023-02-26T00:27:12.559Z,11.37
2023-02-26T00:28:09.880Z,11.49
2023-02-26T00:29:06.756Z,11.43
2023-02-26T00:30:06.233Z,11.44
2023-02-26T00:31:03.173Z,11.30
2023-02-26T00:32:00.135Z,11.51
2023-02-26T00:32:57.133Z,11.52
2023-02-26T00:33:56.274Z,11.53
2023-02-26T00:34:53.160Z,11.59
2023-02-26T00:35:58.943Z,11.55
2023-02-26T00:37:32.631Z,11.55
2023-02-26T00:38:34.863Z,11.62
2023-02-26T00:39:40.918Z,11.50
2023-02-26T00:40:45.917Z,11.62
2023-02-26T00:41:42.853Z,11.58
2023-02-26T00:42:39.756Z,11.49
2023-02-26T00:43:36.639Z,11.38
2023-02-26T00:44:35.194Z,11.52
2023-02-26T00:45:32.374Z,11.46
2023-02-26T00:46:59.968Z,11.46
2023-02-26T00:48:19.609Z,11.38
2023-02-26T00:49:34.503Z,11.44
2023-02-26T00:50:31.778Z,11.40
2023-02-26T00:51:32.681Z,11.37
2023-02-26T00:52:59.830Z,11.35
2023-02-26T00:54:12.833Z,11.36
2023-02-26T00:55:09.624Z,10.96
2023-02-26T00:56:06.346Z,11.33
2023-02-26T00:57:05.866Z,11.32
2023-02-26T00:58:02.526Z,11.40
2023-02-26T00:58:59.101Z,11.40
2023-02-26T00:59:55.696Z,11.38
2023-02-26T01:00:52.293Z,11.48
2023-02-26T01:01:49.477Z,11.12
2023-02-26T01:02:46.944Z,11.48
2023-02-26T01:03:43.673Z,11.25
2023-02-26T01:04:41.071Z,11.45
2023-02-26T01:05:38.144Z,11.34
2023-02-26T01:06:38.810Z,11.34
2023-02-26T01:07:52.095Z,11.29
2023-02-26T01:08:59.454Z,11.34
2023-02-26T01:09:56.281Z,11.22
2023-02-26T01:10:53.201Z,11.50
2023-02-26T01:11:50.603Z,11.54
2023-02-26T01:12:47.612Z,11.47
2023-02-26T01:13:44.399Z,11.56
2023-02-26T01:14:41.512Z,11.18
2023-02-26T01:15:38.583Z,11.52
2023-02-26T01:17:00.040Z,11.60
2023-02-26T01:18:09.910Z,11.60
2023-02-26T01:19:28.988Z,11.68
2023-02-26T01:20:36.421Z,11.63
2023-02-26T01:21:39.050Z,11.66
2023-02-26T01:22:50.970Z,11.75
2023-02-26T01:23:51.599Z,11.71
2023-02-26T01:24:52.322Z,11.63
2023-02-26T01:25:55.137Z,11.63
2023-02-26T01:26:51.890Z,11.60
2023-02-26T01:27:48.835Z,11.54
2023-02-26T01:28:45.838Z,11.57
2023-02-26T01:29:42.575Z,11.54
2023-02-26T01:30:39.492Z,11.50
2023-02-26T01:32:03.412Z,11.47
2023-02-26T01:33:14.951Z,11.56
2023-02-26T01:34:18.366Z,11.58
2023-02-26T01:35:52.390Z,11.58
2023-02-26T01:37:02.970Z,11.34
2023-02-26T01:38:08.567Z,11.72
2023-02-26T01:39:32.664Z,11.70
2023-02-26T01:40:32.206Z,11.66
2023-02-26T01:41:36.621Z,11.25
2023-02-26T01:42:38.035Z,11.52
2023-02-26T01:43:38.718Z,11.55
2023-02-26T01:44:55.928Z,11.53
2023-02-26T01:46:05.519Z,11.49
2023-02-26T01:47:20.598Z,11.41
2023-02-26T01:48:31.648Z,11.40
2023-02-26T01:49:28.854Z,11.20
2023-02-26T01:50:29.993Z,11.36
2023-02-26T01:51:51.945Z,11.09
2023-02-26T01:52:48.481Z,11.39
2023-02-26T01:53:45.064Z,11.39
2023-02-26T01:54:41.689Z,11.37
2023-02-26T01:55:38.290Z,11.34
2023-02-26T01:56:35.348Z,11.32
2023-02-26T01:57:32.472Z,11.22
2023-02-26T01:58:33.710Z,11.25
2023-02-26T01:59:32.371Z,11.28
2023-02-26T02:00:30.592Z,11.30
2023-02-26T02:01:27.229Z,11.22
2023-02-26T02:02:25.676Z,11.24
2023-02-26T02:03:24.664Z,11.19
2023-02-26T02:04:23.584Z,11.25
2023-02-26T02:05:30.584Z,11.18
2023-02-26T02:06:29.837Z,11.16
2023-02-26T02:07:26.440Z,11.06
2023-02-26T02:08:23.093Z,10.08
2023-02-26T02:09:19.746Z,11.24
2023-02-26T02:10:16.783Z,11.27
2023-02-26T02:11:15.087Z,10.91
2023-02-26T02:12:35.977Z,11.18
2023-02-26T02:13:50.524Z,11.10
2023-02-26T02:15:06.128Z,11.21
2023-02-26T02:16:12.330Z,11.26
2023-02-26T02:17:19.536Z,11.29
2023-02-26T02:18:16.138Z,11.28
2023-02-26T02:19:41.762Z,11.35
2023-02-26T02:21:28.031Z,11.43
2023-02-26T02:22:53.522Z,11.46
2023-02-26T02:24:06.529Z,11.48
2023-02-26T02:25:11.777Z,11.50
2023-02-26T02:26:34.376Z,11.48
2023-02-26T02:28:00.916Z,11.39
2023-02-26T02:29:15.936Z,11.46
2023-02-26T02:30:30.954Z,11.44
2023-02-26T02:31:33.628Z,11.42
2023-02-26T02:32:33.169Z,11.44
2023-02-26T02:33:37.872Z,11.45
2023-02-26T02:34:37.261Z,11.40
2023-02-26T02:36:06.540Z,11.47
2023-02-26T02:37:19.942Z,11.42
2023-02-26T02:38:43.021Z,11.52
2023-02-26T02:39:49.932Z,11.53
2023-02-26T02:40:51.725Z,11.47
2023-02-26T02:42:03.046Z,11.39
2023-02-26T02:43:04.657Z,11.39
2023-02-26T02:44:04.332Z,11.46
2023-02-26T02:45:44.819Z,11.43
2023-02-26T02:46:45.527Z,11.44
2023-02-26T02:47:44.426Z,11.47
2023-02-26T02:48:48.067Z,11.45
2023-02-26T02:49:51.598Z,11.33
2023-02-26T02:50:54.027Z,11.41
2023-02-26T02:51:59.510Z,11.34
2023-02-26T02:53:06.032Z,11.33
2023-02-26T02:54:33.593Z,11.42
2023-02-26T02:55:38.069Z,11.41
2023-02-26T02:56:46.773Z,11.41
2023-02-26T02:58:14.885Z,11.38
2023-02-26T02:59:17.496Z,11.40
2023-02-26T03:00:17.956Z,11.48
2023-02-26T03:01:17.813Z,11.50
2023-02-26T03:02:40.508Z,11.50
2023-02-26T03:03:42.920Z,11.48
2023-02-26T03:04:41.237Z,11.53
2023-02-26T03:05:38.017Z,11.46
2023-02-26T03:06:35.963Z,11.28
2023-02-26T03:07:37.877Z,11.25
2023-02-26T03:08:39.603Z,11.37
2023-02-26T03:09:36.712Z,11.22
2023-02-26T03:10:33.833Z,11.38
2023-02-26T03:11:31.748Z,11.34
2023-02-26T03:12:32.417Z,11.30
2023-02-26T03:13:29.069Z,11.37
2023-02-26T03:14:26.578Z,11.47
2023-02-26T03:15:42.896Z,11.36
2023-02-26T03:16:54.371Z,11.32
2023-02-26T03:18:05.691Z,11.27
2023-02-26T03:19:08.272Z,11.28
2023-02-26T03:20:27.633Z,11.17
2023-02-26T03:21:33.029Z,11.22
2023-02-26T03:22:43.673Z,11.30
2023-02-26T03:23:59.368Z,11.31
2023-02-26T03:25:07.577Z,11.34
2023-02-26T03:26:12.241Z,11.26
2023-02-26T03:27:31.636Z,11.34
2023-02-26T03:28:38.467Z,11.30
2023-02-26T03:29:43.772Z,11.30
2023-02-26T03:30:54.662Z,11.40
2023-02-26T03:31:58.305Z,11.32
2023-02-26T03:33:30.360Z,11.30
2023-02-26T03:35:00.257Z,11.22
2023-02-26T03:36:06.620Z,10.57
2023-02-26T03:37:18.292Z,10.92
2023-02-26T03:38:23.096Z,11.22
2023-02-26T03:39:31.804Z,11.27
2023-02-26T03:40:35.359Z,11.27
2023-02-26T03:41:42.443Z,11.26
2023-02-26T03:42:45.789Z,11.18
2023-02-26T03:43:53.377Z,11.17
2023-02-26T03:45:01.176Z,11.20
2023-02-26T03:46:04.562Z,11.20
2023-02-26T03:47:06.138Z,11.16
2023-02-26T03:48:07.112Z,11.11
2023-02-26T03:49:08.937Z,11.12
2023-02-26T03:50:08.874Z,11.18
2023-02-26T03:51:12.728Z,11.13
2023-02-26T03:52:09.571Z,11.31
2023-02-26T03:53:22.715Z,11.05
2023-02-26T03:54:24.078Z,11.28
2023-02-26T03:55:37.513Z,11.23
2023-02-26T03:56:41.752Z,11.25
2023-02-26T03:57:38.852Z,11.18
2023-02-26T03:58:35.790Z,10.80
2023-02-26T03:59:33.833Z,11.17
2023-02-26T04:00:32.908Z,11.23
2023-02-26T04:01:36.260Z,11.22
2023-02-26T04:02:57.040Z,11.30
2023-02-26T04:04:15.338Z,11.27
2023-02-26T04:05:17.574Z,11.17
2023-02-26T04:06:14.670Z,11.28
2023-02-26T04:07:13.445Z,11.29
2023-02-26T04:08:10.052Z,11.37
2023-02-26T04:09:06.941Z,11.23
2023-02-26T04:10:04.648Z,11.37
2023-02-26T04:11:17.289Z,11.37
2023-02-26T04:12:14.688Z,11.44
2023-02-26T04:13:11.282Z,11.49
2023-02-26T04:14:07.883Z,11.51
2023-02-26T04:15:05.402Z,11.42
2023-02-26T04:16:02.396Z,11.53
2023-02-26T04:16:59.148Z,11.51
2023-02-26T04:17:55.821Z,11.42
2023-02-26T04:18:52.462Z,11.48
2023-02-26T04:19:49.026Z,11.37
2023-02-26T04:20:45.659Z,11.51
2023-02-26T04:21:42.244Z,11.41
2023-02-26T04:22:39.200Z,11.47
2023-02-26T04:23:35.796Z,11.44
2023-02-26T04:24:32.410Z,11.39
2023-02-26T04:25:29.007Z,10.70
2023-02-26T04:26:25.879Z,11.43
2023-02-26T04:27:22.660Z,11.20
2023-02-26T04:28:19.272Z,11.29
2023-02-26T04:29:15.915Z,11.29
2023-02-26T04:30:12.833Z,11.32
2023-02-26T04:31:10.552Z,11.26
2023-02-26T04:32:07.424Z,10.90
2023-02-26T04:33:04.207Z,11.22
2023-02-26T04:34:00.838Z,11.20
2023-02-26T04:34:57.411Z,11.11
2023-02-26T04:35:53.996Z,11.08
2023-02-26T04:36:50.580Z,11.10
2023-02-26T04:37:47.221Z,11.01
2023-02-26T04:38:44.393Z,10.99
2023-02-26T04:39:41.078Z,11.07
2023-02-26T04:40:37.690Z,11.03
2023-02-26T04:41:34.247Z,11.10
2023-02-26T04:42:30.882Z,11.16
2023-02-26T04:43:27.462Z,10.96
2023-02-26T04:44:24.058Z,11.11
2023-02-26T04:45:20.675Z,11.08
2023-02-26T04:46:17.362Z,11.10
2023-02-26T04:47:14.315Z,11.10
2023-02-26T04:48:10.895Z,10.93
2023-02-26T04:49:07.529Z,11.09
2023-02-26T04:50:04.514Z,11.12
2023-02-26T04:51:01.145Z,11.17
2023-02-26T04:51:57.733Z,11.15
2023-02-26T04:52:54.331Z,11.12
2023-02-26T04:53:51.078Z,11.06
2023-02-26T04:54:47.614Z,11.05
2023-02-26T04:55:44.210Z,11.19
2023-02-26T04:56:41.038Z,11.19
2023-02-26T04:57:37.621Z,11.13
2023-02-26T04:58:34.239Z,11.14
2023-02-26T04:59:30.888Z,11.31
2023-02-26T05:00:27.903Z,11.19
2023-02-26T05:01:24.579Z,11.39
2023-02-26T05:02:21.194Z,11.29
2023-02-26T05:03:18.227Z,11.30
2023-02-26T05:04:15.057Z,11.33
2023-02-26T05:05:11.682Z,11.36
2023-02-26T05:06:08.409Z,11.30
2023-02-26T05:07:05.390Z,11.21
2023-02-26T05:08:01.958Z,11.16
2023-02-26T05:08:58.577Z,11.28
2023-02-26T05:09:55.212Z,11.26
2023-02-26T05:10:52.572Z,11.11
2023-02-26T05:11:50.053Z,11.07
2023-02-26T05:12:46.753Z,11.26
2023-02-26T05:13:43.311Z,11.33
2023-02-26T05:14:39.917Z,11.22
2023-02-26T05:15:36.773Z,11.21
2023-02-26T05:16:33.538Z,11.20
2023-02-26T05:17:30.202Z,11.20
2023-02-26T05:18:26.855Z,11.13
2023-02-26T05:19:23.527Z,11.30
2023-02-26T05:20:20.185Z,11.27
2023-02-26T05:21:16.828Z,11.32
2023-02-26T05:22:13.997Z,11.35
2023-02-26T05:23:10.624Z,11.30
2023-02-26T05:24:07.546Z,11.30
2023-02-26T05:25:05.051Z,11.27
2023-02-26T05:26:02.158Z,11.29
2023-02-26T05:26:58.705Z,11.30
2023-02-26T05:27:55.839Z,11.35
2023-02-26T05:28:52.611Z,11.27
2023-02-26T05:29:49.265Z,11.38
2023-02-26T05:30:45.883Z,11.32
2023-02-26T05:31:42.916Z,11.46
2023-02-26T05:32:39.902Z,11.36
2023-02-26T05:33:36.540Z,11.36
2023-02-26T05:34:33.138Z,11.35
2023-02-26T05:35:29.801Z,11.37
2023-02-26T05:36:26.863Z,11.51
2023-02-26T05:37:23.594Z,11.47
2023-02-26T05:38:20.486Z,11.51
2023-02-26T05:39:17.123Z,11.19
2023-02-26T05:40:14.183Z,11.37
2023-02-26T05:41:10.873Z,11.54
2023-02-26T05:42:08.265Z,11.82
2023-02-26T05:43:04.896Z,11.80
2023-02-26T05:44:02.605Z,11.76
2023-02-26T05:44:59.311Z,11.68
2023-02-26T05:45:56.031Z,11.74
2023-02-26T05:46:52.828Z,11.62
2023-02-26T05:47:49.548Z,11.61
2023-02-26T05:48:46.149Z,11.59
2023-02-26T05:49:42.726Z,11.48
2023-02-26T05:50:39.305Z,11.47
2023-02-26T05:51:35.975Z,11.53
2023-02-26T05:52:35.639Z,11.48
2023-02-26T05:53:34.891Z,11.67
2023-02-26T05:54:33.628Z,11.68
2023-02-26T05:55:30.187Z,11.69
2023-02-26T05:56:27.039Z,11.66
2023-02-26T05:57:24.472Z,11.78
2023-02-26T05:58:21.593Z,11.75
2023-02-26T05:59:18.304Z,11.63
2023-02-26T06:00:15.426Z,11.67
2023-02-26T06:01:12.166Z,11.58
2023-02-26T06:02:08.869Z,11.74
2023-02-26T06:03:06.446Z,11.68
2023-02-26T06:04:06.885Z,11.67
2023-02-26T06:05:03.808Z,11.63
2023-02-26T06:06:00.395Z,11.86
2023-02-26T06:06:56.981Z,11.93
2023-02-26T06:07:53.542Z,11.73
2023-02-26T06:08:50.169Z,12.16
2023-02-26T06:09:46.822Z,12.05
2023-02-26T06:10:44.048Z,12.11
2023-02-26T06:11:40.828Z,12.11
2023-02-26T06:12:38.191Z,12.09
2023-02-26T06:13:34.852Z,12.16
2023-02-26T06:14:31.456Z,12.04
2023-02-26T06:15:28.128Z,12.12
2023-02-26T06:16:25.467Z,12.24
2023-02-26T06:17:22.324Z,12.08
2023-02-26T06:18:19.153Z,12.13
2023-02-26T06:19:15.775Z,12.14
2023-02-26T06:20:12.928Z,12.26
2023-02-26T06:21:09.508Z,12.09
2023-02-26T06:22:06.217Z,12.42
2023-02-26T06:23:02.825Z,12.77
2023-02-26T06:23:59.496Z,12.72
2023-02-26T06:24:56.160Z,12.68
2023-02-26T06:25:53.420Z,12.76
2023-02-26T06:26:50.060Z,12.70
2023-02-26T06:27:46.680Z,12.78
2023-02-26T06:28:43.283Z,12.79
2023-02-26T06:29:39.925Z,12.90
2023-02-26T06:30:36.787Z,12.91
2023-02-26T06:31:33.449Z,12.91
2023-02-26T06:32:30.848Z,12.85
2023-02-26T06:33:27.581Z,12.75
2023-02-26T06:34:24.154Z,12.74
2023-02-26T06:35:20.782Z,12.86
2023-02-26T06:36:17.606Z,12.83
2023-02-26T06:37:14.273Z,12.72
2023-02-26T06:38:10.916Z,12.66
2023-02-26T06:39:08.163Z,12.90
2023-02-26T06:40:05.713Z,12.95
2023-02-26T06:41:02.302Z,13.16
2023-02-26T06:41:58.943Z,13.27
2023-02-26T06:42:55.536Z,13.39
2023-02-26T06:43:52.174Z,13.34
2023-02-26T06:44:48.878Z,13.32
2023-02-26T06:45:46.453Z,13.22
2023-02-26T06:46:43.110Z,13.22
2023-02-26T06:47:39.792Z,13.15
2023-02-26T06:48:36.403Z,13.14
2023-02-26T06:49:33.046Z,12.68
2023-02-26T06:50:29.725Z,13.20
2023-02-26T06:51:26.312Z,13.45
2023-02-26T06:52:22.903Z,13.39
2023-02-26T06:53:19.550Z,13.49
2023-02-26T06:54:16.236Z,13.58
2023-02-26T06:55:13.196Z,13.58
2023-02-26T06:56:09.996Z,13.57
2023-02-26T06:57:06.772Z,13.45
2023-02-26T06:58:03.392Z,13.73
2023-02-26T06:58:59.994Z,13.88
2023-02-26T06:59:56.637Z,13.64
2023-02-26T07:00:53.309Z,13.81
2023-02-26T07:01:49.986Z,13.55
2023-02-26T07:02:46.580Z,13.48
2023-02-26T07:03:43.197Z,13.77
2023-02-26T07:04:39.857Z,13.77
2023-02-26T07:05:36.438Z,13.92
2023-02-26T07:06:33.034Z,14.03
2023-02-26T07:07:29.718Z,13.97
2023-02-26T07:08:26.350Z,14.15
2023-02-26T07:09:23.099Z,13.98
2023-02-26T07:10:21.527Z,14.20
2023-02-26T07:11:18.219Z,14.10
2023-02-26T07:12:14.944Z,13.88
2023-02-26T07:13:11.551Z,13.91
2023-02-26T07:14:08.160Z,13.85
2023-02-26T07:15:06.337Z,13.98
2023-02-26T07:16:07.195Z,13.67
2023-02-26T07:17:04.137Z,13.89
2023-02-26T07:18:00.719Z,13.87
2023-02-26T07:18:57.356Z,14.05
2023-02-26T07:19:53.919Z,14.19
2023-02-26T07:20:50.620Z,14.19
2023-02-26T07:21:47.522Z,14.03
2023-02-26T07:22:44.464Z,13.96
2023-02-26T07:23:41.063Z,13.92
2023-02-26T07:24:37.635Z,13.86
2023-02-26T07:25:34.321Z,13.76
2023-02-26T07:26:30.962Z,13.96
2023-02-26T07:27:27.861Z,13.77
2023-02-26T07:28:24.632Z,13.92
2023-02-26T07:29:21.342Z,13.90
2023-02-26T07:30:18.308Z,13.79
2023-02-26T07:31:16.725Z,13.78
2023-02-26T07:32:13.471Z,13.57
2023-02-26T07:33:12.103Z,13.52
2023-02-26T07:34:10.124Z,13.26
2023-02-26T07:35:07.139Z,13.92
2023-02-26T07:36:03.924Z,13.98
2023-02-26T07:37:00.486Z,13.88
2023-02-26T07:37:57.114Z,13.96
2023-02-26T07:38:53.662Z,13.78
2023-02-26T07:39:50.494Z,13.73
2023-02-26T07:40:47.610Z,13.82
2023-02-26T07:41:44.216Z,14.00
2023-02-26T07:42:40.937Z,13.92
2023-02-26T07:43:37.508Z,13.84
2023-02-26T07:44:34.087Z,13.35
2023-02-26T07:45:30.782Z,13.83
2023-02-26T07:46:27.701Z,13.55
2023-02-26T07:47:24.461Z,13.95
2023-02-26T07:48:21.166Z,13.92
2023-02-26T07:49:17.897Z,13.93
2023-02-26T07:50:14.534Z,14.04
2023-02-26T07:51:11.345Z,13.86
2023-02-26T07:52:08.218Z,13.83
2023-02-26T07:53:04.779Z,13.97
2023-02-26T07:54:01.419Z,14.13
2023-02-26T07:54:58.402Z,14.20
2023-02-26T07:55:55.011Z,14.19
2023-02-26T07:56:51.645Z,14.11
2023-02-26T07:57:48.238Z,14.15
2023-02-26T07:58:44.849Z,14.08
2023-02-26T07:59:41.423Z,14.21
2023-02-26T08:00:38.068Z,14.29
2023-02-26T08:01:34.899Z,14.20
2023-02-26T08:02:31.724Z,14.22
2023-02-26T08:03:28.375Z,14.41
2023-02-26T08:04:25.131Z,14.42
2023-02-26T08:05:21.808Z,14.46
2023-02-26T08:06:18.480Z,14.56
2023-02-26T08:07:15.550Z,14.50
2023-02-26T08:08:12.209Z,14.43
2023-02-26T08:09:08.869Z,14.40
2023-02-26T08:10:06.215Z,14.51
2023-02-26T08:11:03.297Z,14.62
2023-02-26T08:12:00.322Z,14.42
2023-02-26T08:12:56.967Z,14.48
2023-02-26T08:13:53.868Z,14.28
2023-02-26T08:14:50.452Z,14.51
2023-02-26T08:15:48.316Z,14.30
2023-02-26T08:16:45.362Z,14.45
2023-02-26T08:17:42.081Z,14.92
2023-02-26T08:18:38.804Z,15.15
2023-02-26T08:19:35.661Z,15.23
2023-02-26T08:20:33.348Z,15.15
2023-02-26T08:21:29.920Z,15.16
2023-02-26T08:22:27.067Z,14.98
2023-02-26T08:23:23.689Z,15.08
2023-02-26T08:24:20.245Z,15.02
2023-02-26T08:25:17.029Z,14.97
2023-02-26T08:26:14.135Z,14.92
2023-02-26T08:27:12.172Z,14.87
2023-02-26T08:28:10.124Z,15.08
2023-02-26T08:29:07.250Z,14.98
2023-02-26T08:30:04.963Z,15.07
2023-02-26T08:31:02.197Z,14.91
2023-02-26T08:31:58.950Z,15.09
2023-02-26T08:32:55.958Z,15.00
2023-02-26T08:33:52.594Z,15.18
2023-02-26T08:34:49.404Z,15.21
2023-02-26T08:35:47.217Z,15.44
2023-02-26T08:36:43.827Z,15.63
2023-02-26T08:37:40.521Z,15.33
2023-02-26T08:38:37.637Z,15.13
2023-02-26T08:39:38.328Z,15.26
2023-02-26T08:40:34.963Z,15.34
2023-02-26T08:41:32.721Z,15.25
2023-02-26T08:42:29.343Z,15.63
2023-02-26T08:43:26.653Z,15.59
2023-02-26T08:44:23.223Z,15.49
2023-02-26T08:45:19.782Z,15.20
2023-02-26T08:46:16.452Z,15.45
2023-02-26T08:47:16.959Z,15.62
2023-02-26T08:48:15.863Z,15.78
2023-02-26T08:49:12.494Z,15.50
2023-02-26T08:50:10.753Z,15.50
2023-02-26T08:51:07.420Z,15.26
2023-02-26T08:52:04.407Z,15.70
2023-02-26T08:53:00.999Z,15.56
2023-02-26T08:53:57.624Z,15.59
2023-02-26T08:54:54.215Z,15.51
2023-02-26T08:55:52.538Z,15.72
2023-02-26T08:56:49.214Z,15.56
2023-02-26T08:57:45.800Z,15.68
2023-02-26T08:58:43.089Z,15.63
2023-02-26T08:59:39.668Z,15.93
2023-02-26T09:00:36.683Z,16.03
2023-02-26T09:01:33.261Z,15.81
2023-02-26T09:02:29.913Z,16.00
2023-02-26T09:03:26.575Z,15.54
2023-02-26T09:04:23.222Z,15.33
2023-02-26T09:05:20.081Z,15.43
2023-02-26T09:06:16.666Z,15.07
2023-02-26T09:07:13.273Z,15.25
2023-02-26T09:08:11.566Z,15.62
2023-02-26T09:09:08.385Z,15.29
2023-02-26T09:10:06.590Z,15.02
2023-02-26T09:11:04.070Z,15.29
2023-02-26T09:12:00.695Z,15.30
2023-02-26T09:12:57.309Z,15.37
2023-02-26T09:13:53.861Z,15.40
2023-02-26T09:14:50.492Z,15.54
2023-02-26T09:15:49.289Z,15.83
2023-02-26T09:16:45.996Z,15.70
2023-02-26T09:17:42.936Z,15.37
2023-02-26T09:18:39.521Z,15.55
2023-02-26T09:19:36.231Z,15.63
2023-02-26T09:20:32.979Z,15.70
2023-02-26T09:21:29.982Z,15.52
2023-02-26T09:22:26.586Z,15.60
2023-02-26T09:23:23.174Z,15.59
2023-02-26T09:24:19.934Z,15.45
2023-02-26T09:25:16.805Z,15.61
2023-02-26T09:26:13.595Z,15.48
2023-02-26T09:27:10.181Z,15.66
2023-02-26T09:28:06.851Z,15.94
2023-02-26T09:29:03.470Z,16.11
2023-02-26T09:30:00.130Z,16.08
2023-02-26T09:30:56.825Z,16.14
2023-02-26T09:31:53.514Z,16.23
2023-02-26T09:32:50.276Z,16.01
2023-02-26T09:33:46.898Z,16.16
2023-02-26T09:34:43.508Z,16.15
2023-02-26T09:35:40.076Z,16.08
2023-02-26T09:36:37.544Z,15.88
2023-02-26T09:37:34.293Z,15.99
2023-02-26T09:38:31.308Z,16.06
2023-02-26T09:39:27.881Z,16.27
2023-02-26T09:40:45.569Z,15.95
2023-02-26T09:41:48.480Z,16.00
2023-02-26T09:42:55.251Z,16.10
2023-02-26T09:44:17.469Z,16.19
2023-02-26T09:45:26.014Z,16.39
2023-02-26T09:46:25.920Z,16.03
2023-02-26T09:47:30.274Z,15.95
2023-02-26T09:48:31.153Z,15.99
2023-02-26T09:49:43.015Z,16.00
2023-02-26T09:50:52.579Z,16.02
2023-02-26T09:51:55.592Z,16.04
2023-02-26T09:53:14.645Z,16.32
2023-02-26T09:54:23.465Z,16.22
2023-02-26T09:55:21.204Z,16.57
2023-02-26T09:56:21.978Z,16.45
2023-02-26T09:57:43.179Z,16.41
2023-02-26T09:58:41.493Z,16.72
2023-02-26T09:59:38.292Z,16.50
2023-02-26T10:00:38.447Z,16.20
2023-02-26T10:01:43.902Z,16.30
2023-02-26T10:02:52.285Z,16.37
2023-02-26T10:04:15.930Z,16.28
2023-02-26T10:05:15.041Z,16.44
2023-02-26T10:06:29.388Z,16.37
2023-02-26T10:07:45.441Z,16.26
2023-02-26T10:08:45.101Z,16.27
2023-02-26T10:09:41.727Z,16.39
2023-02-26T10:10:46.190Z,16.27
2023-02-26T10:12:01.621Z,16.20
2023-02-26T10:13:00.461Z,16.10
2023-02-26T10:14:13.187Z,16.21
2023-02-26T10:15:23.473Z,16.36
2023-02-26T10:16:28.965Z,16.44
2023-02-26T10:17:45.037Z,16.28
2023-02-26T10:18:50.401Z,16.28
2023-02-26T10:19:51.645Z,16.30
2023-02-26T10:21:13.034Z,15.98
2023-02-26T10:22:24.834Z,16.35
2023-02-26T10:23:48.797Z,16.30
2023-02-26T10:24:55.693Z,16.49
2023-02-26T10:26:01.441Z,16.33
2023-02-26T10:27:05.373Z,16.18
2023-02-26T10:28:06.789Z,16.25
2023-02-26T10:29:31.939Z,16.03
2023-02-26T10:30:44.609Z,15.96
2023-02-26T10:31:52.859Z,15.99
2023-02-26T10:33:03.952Z,16.25
2023-02-26T10:34:00.500Z,16.10
2023-02-26T10:35:01.913Z,16.05
2023-02-26T10:36:17.789Z,15.82
2023-02-26T10:37:36.342Z,15.93
2023-02-26T10:38:33.144Z,15.83
2023-02-26T10:39:40.933Z,15.91
2023-02-26T10:40:46.541Z,15.77
2023-02-26T10:41:43.786Z,15.78
2023-02-26T10:43:17.979Z,15.75
2023-02-26T10:44:24.897Z,15.70
2023-02-26T10:45:35.485Z,15.81
2023-02-26T10:47:07.508Z,15.49
2023-02-26T10:48:36.277Z,15.56
2023-02-26T10:49:38.934Z,15.59
2023-02-26T10:50:36.440Z,15.57
2023-02-26T10:51:37.488Z,15.56
2023-02-26T10:52:36.230Z,15.44
2023-02-26T10:53:34.679Z,15.48
2023-02-26T10:54:39.148Z,15.28
2023-02-26T10:55:41.894Z,15.28
2023-02-26T10:56:38.482Z,15.27
2023-02-26T10:57:40.150Z,15.30
2023-02-26T10:58:36.786Z,15.06
2023-02-26T10:59:33.454Z,15.37
2023-02-26T11:00:30.113Z,15.14
2023-02-26T11:01:30.876Z,15.44
2023-02-26T11:02:40.219Z,14.92
2023-02-26T11:03:41.100Z,15.17
2023-02-26T11:04:38.957Z,15.41
2023-02-26T11:05:35.642Z,15.33
2023-02-26T11:06:36.377Z,15.40
2023-02-26T11:07:36.470Z,15.49
2023-02-26T11:08:42.042Z,15.45
2023-02-26T11:09:43.853Z,15.31
2023-02-26T11:10:53.450Z,15.22
2023-02-26T11:12:15.887Z,15.51
2023-02-26T11:13:13.041Z,15.52
2023-02-26T11:14:10.733Z,15.45
2023-02-26T11:15:20.182Z,15.30
2023-02-26T11:16:18.736Z,15.38
2023-02-26T11:17:34.137Z,15.06
2023-02-26T11:18:41.331Z,15.02
2023-02-26T11:19:48.686Z,15.28
2023-02-26T11:20:47.011Z,15.19
2023-02-26T11:21:47.080Z,15.20
2023-02-26T11:22:53.422Z,15.02
2023-02-26T11:23:54.882Z,15.25
2023-02-26T11:24:52.410Z,15.35
2023-02-26T11:26:05.406Z,15.19
2023-02-26T11:27:05.166Z,15.14
2023-02-26T11:28:18.638Z,15.22
2023-02-26T11:29:19.782Z,15.20
2023-02-26T11:30:22.069Z,15.18
2023-02-26T11:31:21.508Z,15.07
2023-02-26T11:32:22.385Z,15.04
2023-02-26T11:33:27.699Z,15.10
2023-02-26T11:34:25.967Z,14.88
2023-02-26T11:35:24.960Z,14.89
2023-02-26T11:36:26.431Z,14.89
2023-02-26T11:37:29.584Z,14.98
2023-02-26T11:38:28.175Z,15.00
2023-02-26T11:39:27.754Z,14.91
2023-02-26T11:40:35.706Z,14.83
2023-02-26T11:41:37.775Z,14.82
2023-02-26T11:42:38.449Z,14.83
2023-02-26T11:44:02.671Z,14.78
2023-02-26T11:44:59.789Z,14.62
2023-02-26T11:45:59.361Z,14.75
2023-02-26T11:46:58.259Z,14.83
2023-02-26T11:48:23.849Z,14.76
2023-02-26T11:49:23.971Z,14.79
2023-02-26T11:50:23.261Z,14.79
2023-02-26T11:51:22.887Z,14.70
2023-02-26T11:52:27.827Z,14.70
2023-02-26T11:53:30.773Z,14.40
2023-02-26T11:54:28.856Z,14.66
2023-02-26T11:55:51.946Z,14.70
2023-02-26T11:56:48.611Z,14.15
2023-02-26T11:57:45.271Z,14.48
2023-02-26T11:58:45.599Z,14.71
2023-02-26T11:59:48.232Z,14.78
2023-02-26T12:00:46.565Z,14.79
2023-02-26T12:01:43.343Z,14.79
2023-02-26T12:02:40.394Z,14.70
2023-02-26T12:03:41.116Z,14.75
2023-02-26T12:04:41.572Z,14.65
2023-02-26T12:05:38.582Z,14.79
2023-02-26T12:06:35.855Z,14.72
2023-02-26T12:07:33.983Z,14.62
2023-02-26T12:08:32.942Z,14.64
2023-02-26T12:09:29.622Z,14.68
2023-02-26T12:10:37.615Z,14.66
2023-02-26T12:11:53.256Z,14.74
2023-02-26T12:13:04.895Z,14.65
2023-02-26T12:14:07.682Z,14.67
2023-02-26T12:15:15.255Z,14.70
2023-02-26T12:16:28.469Z,14.36
2023-02-26T12:17:32.160Z,14.75
2023-02-26T12:18:54.921Z,14.66
2023-02-26T12:19:54.433Z,14.74
2023-02-26T12:21:21.924Z,14.66
2023-02-26T12:22:30.640Z,14.64
2023-02-26T12:23:50.401Z,14.69
2023-02-26T12:25:21.814Z,14.68
2023-02-26T12:26:28.306Z,14.62
2023-02-26T12:27:34.939Z,14.51
2023-02-26T12:29:00.510Z,14.60
2023-02-26T12:30:18.860Z,14.53
2023-02-26T12:31:53.027Z,14.53
2023-02-26T12:33:01.411Z,14.60
2023-02-26T12:34:26.018Z,14.50
2023-02-26T12:35:22.584Z,14.52
2023-02-26T12:36:48.397Z,14.56
2023-02-26T12:38:24.991Z,14.59
2023-02-26T12:40:08.573Z,14.46
2023-02-26T12:41:46.344Z,14.51
2023-02-26T12:42:59.782Z,14.51
2023-02-26T12:43:57.472Z,14.63
2023-02-26T12:45:12.961Z,14.54
2023-02-26T12:46:31.915Z,14.57
2023-02-26T12:47:40.939Z,14.56
2023-02-26T12:49:02.327Z,14.59
2023-02-26T12:50:29.986Z,14.62
2023-02-26T12:51:58.710Z,14.59
2023-02-26T12:52:58.128Z,14.52
2023-02-26T12:54:23.984Z,14.53
2023-02-26T12:55:34.279Z,14.60
2023-02-26T12:56:33.547Z,14.61
2023-02-26T12:57:51.535Z,14.59
2023-02-26T12:58:48.094Z,14.51
2023-02-26T12:59:50.695Z,14.47
2023-02-26T13:01:00.883Z,14.20
2023-02-26T13:02:33.266Z,14.52
2023-02-26T13:03:43.433Z,14.54
2023-02-26T13:04:55.066Z,14.46
2023-02-26T13:06:35.678Z,14.46
2023-02-26T13:07:49.605Z,14.44
2023-02-26T13:09:13.470Z,14.53
2023-02-26T13:10:51.624Z,14.57
2023-02-26T13:12:04.012Z,14.51
2023-02-26T13:13:32.681Z,14.55
2023-02-26T13:14:45.252Z,14.44
2023-02-26T13:15:48.830Z,14.47
2023-02-26T13:16:52.388Z,14.45
2023-02-26T13:18:13.125Z,14.53
2023-02-26T13:19:21.764Z,14.41
2023-02-26T13:20:25.975Z,14.53